Time;durP1;ratioP1;P1;durP2;ratioP2;P2;SDS_P1;SDS_P2;PMS_P1;PMS_P2;Temp;Humidity;BMP_temperature;BMP_pressure;BME280_temperature;BME280_humidity;BME280_pressure;Samples;Min_cycle;Max_cycle;Signal;HPM_P1;HPM_P2
2024/01/31 00:00:13;;;;;;;28.27;22.63;;;1.40;99.50;;;;;;6277762;22;20202;-60
2024/01/31 00:02:40;;;;;;;34.77;24.20;;;1.40;99.80;;;;;;6277751;22;20594;-60
2024/01/31 00:05:07;;;;;;;30.93;22.20;;;1.40;99.50;;;;;;6278484;22;20785;-60
2024/01/31 00:07:35;;;;;;;32.53;23.40;;;1.40;99.50;;;;;;6277757;22;20199;-60
2024/01/31 00:10:03;;;;;;;38.33;24.53;;;1.50;99.50;;;;;;6277529;22;20168;-59
2024/01/31 00:12:30;;;;;;;30.10;22.27;;;1.40;99.50;;;;;;6277871;22;20179;-60
2024/01/31 00:14:57;;;;;;;33.37;24.03;;;1.40;99.40;;;;;;6278061;22;20174;-60
2024/01/31 00:17:24;;;;;;;32.57;23.40;;;1.40;99.40;;;;;;6278179;22;20613;-59
2024/01/31 00:19:52;;;;;;;30.30;21.97;;;1.40;99.40;;;;;;6278355;22;20225;-60
2024/01/31 00:22:19;;;;;;;33.37;23.10;;;1.40;99.40;;;;;;6278715;22;20580;-60
2024/01/31 00:24:46;;;;;;;37.07;22.90;;;1.40;99.50;;;;;;6277486;22;20471;-59
2024/01/31 00:27:13;;;;;;;30.40;22.73;;;1.40;99.50;;;;;;6278129;22;20194;-60
2024/01/31 00:29:40;;;;;;;31.27;21.97;;;1.40;99.40;;;;;;6277531;22;20671;-60
2024/01/31 00:32:08;;;;;;;31.83;22.90;;;1.30;99.40;;;;;;6278194;22;20170;-60
2024/01/31 00:34:35;;;;;;;31.90;22.13;;;1.30;99.40;;;;;;6277777;22;20233;-60
2024/01/31 00:37:02;;;;;;;33.80;22.83;;;1.30;99.40;;;;;;6277800;22;20183;-60
2024/01/31 00:39:32;;;;;;;36.77;25.50;;;1.30;99.50;;;;;;6277736;22;20178;-60
2024/01/31 00:41:59;;;;;;;35.43;23.60;;;1.30;99.60;;;;;;6277938;22;20588;-60
2024/01/31 00:44:43;;;;;;;34.00;23.37;;;1.30;99.60;;;;;;6254810;22;20206;-60
2024/01/31 00:47:11;;;;;;;31.57;22.47;;;1.30;99.60;;;;;;6277285;22;20632;-60
2024/01/31 00:49:38;;;;;;;40.37;23.63;;;1.40;99.60;;;;;;6277880;22;20173;-60
2024/01/31 00:52:05;;;;;;;36.43;23.90;;;1.40;99.70;;;;;;6277856;22;20592;-60
2024/01/31 00:54:32;;;;;;;32.57;23.53;;;1.40;99.70;;;;;;6277605;22;20171;-60
2024/01/31 00:57:00;;;;;;;39.97;25.27;;;1.50;99.70;;;;;;6277573;22;20172;-60
2024/01/31 00:59:27;;;;;;;34.57;22.90;;;1.50;99.70;;;;;;6277626;22;20178;-60
2024/01/31 01:01:54;;;;;;;36.77;24.20;;;1.50;99.70;;;;;;6277309;22;20175;-60
2024/01/31 01:04:21;;;;;;;35.20;23.93;;;1.50;99.80;;;;;;6250724;22;20185;-60
2024/01/31 01:06:48;;;;;;;43.53;26.23;;;1.60;99.70;;;;;;6277414;22;20208;-60
2024/01/31 01:09:15;;;;;;;41.67;27.23;;;1.60;99.60;;;;;;6277599;22;20599;-60
2024/01/31 01:11:42;;;;;;;39.77;26.23;;;1.60;99.60;;;;;;6277511;22;20173;-60
2024/01/31 01:14:09;;;;;;;34.03;22.87;;;1.60;99.60;;;;;;6277762;22;20252;-59
2024/01/31 01:16:36;;;;;;;36.77;25.17;;;1.60;99.60;;;;;;6250386;22;20493;-60
2024/01/31 01:19:04;;;;;;;42.53;25.20;;;1.60;99.60;;;;;;6277670;22;20177;-60
2024/01/31 01:21:32;;;;;;;36.43;25.30;;;1.60;99.60;;;;;;6277310;22;20172;-60
2024/01/31 01:24:03;;;;;;;40.77;26.20;;;1.60;99.50;;;;;;6277887;22;20446;-60
2024/01/31 01:26:30;;;;;;;40.60;26.40;;;1.60;99.50;;;;;;6276844;22;20634;-60
2024/01/31 01:28:57;;;;;;;41.83;28.03;;;1.60;99.50;;;;;;6275764;22;20182;-60
2024/01/31 01:31:24;;;;;;;40.13;25.13;;;1.60;99.50;;;;;;6276967;22;20585;-59
2024/01/31 01:33:51;;;;;;;41.10;27.50;;;1.60;99.50;;;;;;6276732;22;20167;-60
2024/01/31 01:36:18;;;;;;;39.57;26.27;;;1.60;99.60;;;;;;6250606;22;20184;-60
2024/01/31 01:38:45;;;;;;;39.43;25.67;;;1.70;99.60;;;;;;6277288;22;20175;-60
2024/01/31 01:41:12;;;;;;;38.43;25.27;;;1.70;99.70;;;;;;6251165;22;20173;-60
2024/01/31 01:43:42;;;;;;;37.60;25.17;;;1.70;99.60;;;;;;6276660;22;20460;-60
2024/01/31 01:46:15;;;;;;;40.57;26.23;;;1.60;99.60;;;;;;6277110;22;20189;-60
2024/01/31 01:48:43;;;;;;;41.70;27.70;;;1.60;99.60;;;;;;6250704;22;20488;-60
2024/01/31 01:51:14;;;;;;;44.67;26.77;;;1.60;99.70;;;;;;6277497;22;20172;-60
2024/01/31 01:53:41;;;;;;;50.30;28.17;;;1.60;99.60;;;;;;6277209;22;20159;-60
2024/01/31 01:56:09;;;;;;;40.33;26.10;;;1.60;99.60;;;;;;6276557;22;20176;-60
2024/01/31 01:58:37;;;;;;;44.57;28.70;;;1.60;99.60;;;;;;6276658;22;20512;-60
2024/01/31 02:01:05;;;;;;;46.50;27.20;;;1.60;99.60;;;;;;6276870;22;20196;-59
2024/01/31 02:03:32;;;;;;;48.73;27.73;;;1.60;99.70;;;;;;6276812;22;20615;-60
2024/01/31 02:06:03;;;;;;;43.23;27.30;;;1.70;99.70;;;;;;6276543;22;20180;-60
2024/01/31 02:08:31;;;;;;;49.70;27.47;;;1.70;99.70;;;;;;6277108;22;20270;-60
2024/01/31 02:10:58;;;;;;;40.63;27.07;;;1.70;99.70;;;;;;6277034;22;20172;-60
2024/01/31 02:13:25;;;;;;;46.93;28.73;;;1.70;99.70;;;;;;6277470;22;20573;-60
2024/01/31 02:15:53;;;;;;;44.07;27.27;;;1.70;99.70;;;;;;6276664;22;20591;-60
2024/01/31 02:18:21;;;;;;;47.20;28.17;;;1.70;99.70;;;;;;6277255;22;20187;-60
2024/01/31 02:20:48;;;;;;;40.67;27.60;;;1.70;99.70;;;;;;6276298;22;20471;-60
2024/01/31 02:23:16;;;;;;;51.30;29.27;;;1.70;99.70;;;;;;6277113;22;20168;-60
2024/01/31 02:25:44;;;;;;;48.13;30.27;;;1.70;99.70;;;;;;6276826;22;20172;-60
2024/01/31 02:28:11;;;;;;;48.17;29.17;;;1.70;99.60;;;;;;6276943;22;20199;-60
2024/01/31 02:30:38;;;;;;;50.23;29.43;;;1.70;99.70;;;;;;6276801;22;20176;-60
2024/01/31 02:33:05;;;;;;;51.07;30.17;;;1.70;99.70;;;;;;6276880;22;20250;-60
2024/01/31 02:35:34;;;;;;;46.20;29.63;;;1.80;99.70;;;;;;6276540;22;20176;-60
2024/01/31 02:38:01;;;;;;;56.07;31.73;;;1.70;99.70;;;;;;6277173;22;20612;-60
2024/01/31 02:40:29;;;;;;;50.60;30.40;;;1.70;99.70;;;;;;6276608;22;20374;-60
2024/01/31 02:42:58;;;;;;;51.17;29.40;;;1.80;99.90;;;;;;6277383;22;20162;-60
2024/01/31 02:45:27;;;;;;;54.83;30.27;;;1.80;99.90;;;;;;6276656;22;20196;-60
2024/01/31 02:47:54;;;;;;;49.97;29.13;;;1.80;99.90;;;;;;6276494;22;20204;-60
2024/01/31 02:50:22;;;;;;;49.73;29.33;;;1.90;99.90;;;;;;6277106;22;20180;-60
2024/01/31 02:52:49;;;;;;;47.80;30.83;;;1.90;99.90;;;;;;6276713;22;20251;-61
2024/01/31 02:55:16;;;;;;;63.10;31.70;;;1.90;99.90;;;;;;6276196;22;20199;-60
2024/01/31 02:57:43;;;;;;;51.33;29.77;;;1.90;99.90;;;;;;6276149;22;20169;-60
2024/01/31 03:00:11;;;;;;;46.97;29.43;;;1.90;99.90;;;;;;6276780;22;20176;-60
2024/01/31 03:02:43;;;;;;;53.23;29.43;;;2.00;99.90;;;;;;6275961;22;20251;-60
2024/01/31 03:05:11;;;;;;;51.03;29.33;;;1.90;99.80;;;;;;6276124;22;20248;-60
2024/01/31 03:07:40;;;;;;;46.03;26.63;;;1.90;99.70;;;;;;6276590;22;20205;-60
2024/01/31 03:10:09;;;;;;;44.90;28.33;;;1.90;99.60;;;;;;6249927;22;20169;-60
2024/01/31 03:12:37;;;;;;;51.63;29.27;;;1.90;99.60;;;;;;6278399;22;20243;-60
2024/01/31 03:15:05;;;;;;;55.20;31.90;;;1.90;99.60;;;;;;6278729;22;20230;-60
2024/01/31 03:17:35;;;;;;;51.80;29.43;;;1.90;99.70;;;;;;6278871;22;20362;-60
2024/01/31 03:20:05;;;;;;;45.77;28.10;;;1.90;99.70;;;;;;6279052;22;20518;-60
2024/01/31 03:22:36;;;;;;;53.17;30.13;;;1.90;99.70;;;;;;6278152;22;20205;-60
2024/01/31 03:25:04;;;;;;;50.30;29.53;;;1.90;99.80;;;;;;6278576;22;20580;-60
2024/01/31 03:27:32;;;;;;;50.27;28.33;;;1.90;99.70;;;;;;6278304;22;20216;-61
2024/01/31 03:30:01;;;;;;;46.23;28.13;;;1.90;99.80;;;;;;6278690;22;20167;-60
2024/01/31 03:32:35;;;;;;;52.80;31.43;;;1.90;99.80;;;;;;6253136;22;20549;-60
2024/01/31 03:35:03;;;;;;;53.87;31.27;;;1.90;99.80;;;;;;6278180;22;20194;-60
2024/01/31 03:37:31;;;;;;;51.97;29.60;;;1.90;99.80;;;;;;6278841;22;20187;-60
2024/01/31 03:39:58;;;;;;;54.30;31.20;;;1.90;99.80;;;;;;6278061;22;20176;-60
2024/01/31 03:42:25;;;;;;;47.17;28.60;;;1.90;99.80;;;;;;6278903;22;20179;-62
2024/01/31 03:44:52;;;;;;;44.90;28.07;;;1.90;99.80;;;;;;6277873;22;20217;-61
2024/01/31 03:47:19;;;;;;;48.93;30.73;;;1.90;99.80;;;;;;6278304;22;20196;-61
2024/01/31 03:49:46;;;;;;;50.07;28.93;;;1.90;99.80;;;;;;6278188;22;20175;-61
2024/01/31 03:52:14;;;;;;;48.77;28.93;;;1.80;99.70;;;;;;6278552;22;20167;-61
2024/01/31 03:54:42;;;;;;;46.33;29.33;;;1.80;99.70;;;;;;6278354;22;20176;-61
2024/01/31 03:57:09;;;;;;;48.87;28.90;;;1.80;99.80;;;;;;6278448;22;20670;-61
2024/01/31 03:59:37;;;;;;;58.00;31.00;;;1.80;99.80;;;;;;6277723;22;20177;-61
2024/01/31 04:02:06;;;;;;;47.33;28.70;;;1.80;99.90;;;;;;6277731;22;20173;-61
2024/01/31 04:04:34;;;;;;;46.77;28.70;;;1.80;99.90;;;;;;6278505;22;20571;-61
2024/01/31 04:07:01;;;;;;;49.53;28.73;;;1.80;99.90;;;;;;6277793;22;20185;-61
2024/01/31 04:09:28;;;;;;;48.03;27.53;;;1.80;99.80;;;;;;6278164;22;20246;-61
2024/01/31 04:11:55;;;;;;;52.90;29.53;;;1.80;99.80;;;;;;6278173;22;20234;-61
2024/01/31 04:14:22;;;;;;;57.37;30.37;;;1.80;99.80;;;;;;6278258;22;20167;-61
2024/01/31 04:16:49;;;;;;;50.77;29.63;;;1.70;99.70;;;;;;6278030;22;20179;-61
2024/01/31 04:19:16;;;;;;;50.37;28.83;;;1.70;99.80;;;;;;6277623;22;20192;-61
2024/01/31 04:21:43;;;;;;;50.60;29.23;;;1.70;99.90;;;;;;6278116;22;20191;-61
2024/01/31 04:24:10;;;;;;;48.87;28.97;;;1.60;99.70;;;;;;6277537;22;20176;-61
2024/01/31 04:26:46;;;;;;;42.73;26.57;;;1.60;99.70;;;;;;6277408;22;20170;-61
2024/01/31 04:29:13;;;;;;;46.33;28.23;;;1.60;99.70;;;;;;6277804;22;20175;-61
2024/01/31 04:31:40;;;;;;;52.17;29.50;;;1.50;99.70;;;;;;6277489;22;20565;-61
2024/01/31 04:34:08;;;;;;;48.53;29.63;;;1.50;99.80;;;;;;6278323;22;20217;-61
2024/01/31 04:36:35;;;;;;;45.37;27.13;;;1.50;99.80;;;;;;6277641;22;20208;-61
2024/01/31 04:39:03;;;;;;;48.33;28.47;;;1.50;99.90;;;;;;6277858;22;20238;-61
2024/01/31 04:41:30;;;;;;;39.93;25.63;;;1.50;99.90;;;;;;6277723;22;20177;-61
2024/01/31 04:43:57;;;;;;;48.23;27.67;;;1.40;99.80;;;;;;6277567;22;20248;-61
2024/01/31 04:46:24;;;;;;;45.43;27.50;;;1.40;99.70;;;;;;6277158;22;20209;-61
2024/01/31 04:48:51;;;;;;;48.73;28.10;;;1.40;99.70;;;;;;6277963;22;20590;-61
2024/01/31 04:51:18;;;;;;;46.57;27.47;;;1.40;99.70;;;;;;6277600;22;20183;-61
2024/01/31 04:53:45;;;;;;;51.43;28.37;;;1.40;99.80;;;;;;6277946;22;20579;-61
2024/01/31 04:56:13;;;;;;;51.37;29.60;;;1.30;99.70;;;;;;6277500;22;20179;-61
2024/01/31 04:58:40;;;;;;;52.70;31.20;;;1.30;99.70;;;;;;6277688;22;20176;-61
2024/01/31 05:01:07;;;;;;;46.90;26.10;;;1.30;99.70;;;;;;6277610;22;20207;-61
2024/01/31 05:03:34;;;;;;;52.63;29.33;;;1.30;99.70;;;;;;6277470;22;20232;-61
2024/01/31 05:06:03;;;;;;;36.50;25.53;;;1.30;99.70;;;;;;6277432;22;20178;-61
2024/01/31 05:08:30;;;;;;;46.70;27.07;;;1.20;99.70;;;;;;6277840;22;20197;-61
2024/01/31 05:10:57;;;;;;;49.47;26.93;;;1.20;99.70;;;;;;6277764;22;20169;-61
2024/01/31 05:13:24;;;;;;;54.77;28.07;;;1.20;99.70;;;;;;6277608;22;20168;-61
2024/01/31 05:15:52;;;;;;;44.37;26.40;;;1.20;99.70;;;;;;6276463;22;20237;-62
2024/01/31 05:18:19;;;;;;;47.70;28.07;;;1.20;99.70;;;;;;6277742;22;20525;-61
2024/01/31 05:20:46;;;;;;;47.40;30.67;;;1.20;99.70;;;;;;6250636;22;20684;-61
2024/01/31 05:23:13;;;;;;;47.77;29.17;;;1.20;99.70;;;;;;6277753;22;20463;-61
2024/01/31 05:25:40;;;;;;;48.90;28.20;;;1.20;99.70;;;;;;6276526;22;20171;-61
2024/01/31 05:28:07;;;;;;;43.73;27.10;;;1.30;99.80;;;;;;6277851;22;20195;-61
2024/01/31 05:30:35;;;;;;;46.60;27.90;;;1.30;99.80;;;;;;6277167;22;20175;-61
2024/01/31 05:33:02;;;;;;;43.53;25.53;;;1.30;99.70;;;;;;6277655;22;20176;-61
2024/01/31 05:35:29;;;;;;;42.53;26.30;;;1.30;99.70;;;;;;6249970;22;20187;-61
2024/01/31 05:37:56;;;;;;;45.23;27.77;;;1.30;99.60;;;;;;6277497;22;20238;-61
2024/01/31 05:40:24;;;;;;;51.07;29.20;;;1.30;99.60;;;;;;6276923;22;20247;-61
2024/01/31 05:42:51;;;;;;;51.20;30.43;;;1.30;99.60;;;;;;6276970;22;20172;-61
2024/01/31 05:45:19;;;;;;;44.53;25.13;;;1.30;99.60;;;;;;6276683;22;20207;-61
2024/01/31 05:47:46;;;;;;;40.37;26.13;;;1.30;99.60;;;;;;6277305;22;20191;-61
2024/01/31 05:50:14;;;;;;;44.00;27.33;;;1.30;99.60;;;;;;6277351;22;20199;-61
2024/01/31 05:52:41;;;;;;;46.23;28.23;;;1.30;99.60;;;;;;6276197;22;20182;-61
2024/01/31 05:55:08;;;;;;;46.87;26.37;;;1.30;99.60;;;;;;6277643;22;20216;-61
2024/01/31 05:57:35;;;;;;;49.43;27.77;;;1.40;99.70;;;;;;6276921;22;20184;-62
2024/01/31 06:00:07;;;;;;;48.47;27.37;;;1.40;99.70;;;;;;6277203;22;20195;-61
2024/01/31 06:02:39;;;;;;;48.77;28.00;;;1.40;99.70;;;;;;6276402;22;20226;-61
2024/01/31 06:05:06;;;;;;;50.27;27.57;;;1.40;99.70;;;;;;6276869;22;20179;-61
2024/01/31 06:07:33;;;;;;;47.43;26.70;;;1.40;99.70;;;;;;6277004;22;20275;-61
2024/01/31 06:10:01;;;;;;;48.20;27.90;;;1.40;99.80;;;;;;6277072;22;20175;-61
2024/01/31 06:12:28;;;;;;;44.90;26.47;;;1.40;99.80;;;;;;6277211;22;20203;-61
2024/01/31 06:14:55;;;;;;;47.13;27.70;;;1.50;99.80;;;;;;6276283;22;20170;-61
2024/01/31 06:17:22;;;;;;;43.90;25.97;;;1.50;99.90;;;;;;6276668;22;20174;-61
2024/01/31 06:19:49;;;;;;;45.93;25.50;;;1.50;99.80;;;;;;6276861;22;20256;-61
2024/01/31 06:22:16;;;;;;;46.27;27.67;;;1.40;99.80;;;;;;6277878;22;20240;-61
2024/01/31 06:24:43;;;;;;;43.23;26.07;;;1.40;99.80;;;;;;6277014;22;20252;-61
2024/01/31 06:27:10;;;;;;;52.20;27.70;;;1.40;99.80;;;;;;6276680;22;20185;-61
2024/01/31 06:29:40;;;;;;;52.63;27.07;;;1.40;99.90;;;;;;6276635;22;20193;-61
2024/01/31 06:32:08;;;;;;;46.47;27.77;;;1.40;99.90;;;;;;6276841;22;20220;-61
2024/01/31 06:34:36;;;;;;;45.70;24.93;;;1.50;99.90;;;;;;6277102;22;20214;-61
2024/01/31 06:37:03;;;;;;;41.20;24.63;;;1.40;99.90;;;;;;6276894;22;20172;-61
2024/01/31 06:39:30;;;;;;;38.73;24.20;;;1.50;99.90;;;;;;6277156;22;20248;-62
2024/01/31 06:41:57;;;;;;;43.13;24.67;;;1.40;99.90;;;;;;6276741;22;20519;-61
2024/01/31 06:44:24;;;;;;;49.97;27.07;;;1.50;99.90;;;;;;6250589;22;20268;-61
2024/01/31 06:46:51;;;;;;;51.67;26.40;;;1.50;99.90;;;;;;6278013;22;20254;-61
2024/01/31 06:49:18;;;;;;;39.33;24.60;;;1.50;99.90;;;;;;6279362;22;20207;-61
2024/01/31 06:51:45;;;;;;;43.33;26.77;;;1.50;99.90;;;;;;6278261;22;20172;-61
2024/01/31 06:54:14;;;;;;;38.77;25.23;;;1.50;99.90;;;;;;6279194;22;20183;-61
2024/01/31 06:56:41;;;;;;;45.43;26.53;;;1.50;99.90;;;;;;6278608;22;20606;-62
2024/01/31 06:59:08;;;;;;;49.83;27.70;;;1.50;99.90;;;;;;6278965;22;20183;-62
2024/01/31 07:01:35;;;;;;;45.10;25.23;;;1.60;99.90;;;;;;6278687;22;20579;-61
2024/01/31 07:04:03;;;;;;;46.17;26.90;;;1.60;99.90;;;;;;6278797;22;20175;-61
2024/01/31 07:06:30;;;;;;;48.33;28.43;;;1.70;99.90;;;;;;6277909;22;20487;-61
2024/01/31 07:08:57;;;;;;;42.40;26.93;;;1.70;99.80;;;;;;6279153;22;20256;-61
2024/01/31 07:11:24;;;;;;;44.67;28.03;;;1.70;99.80;;;;;;6278575;22;20163;-61
2024/01/31 07:13:51;;;;;;;41.87;25.00;;;1.70;99.80;;;;;;6279340;22;20200;-61
2024/01/31 07:16:18;;;;;;;42.87;23.33;;;1.70;99.80;;;;;;6278917;22;20172;-61
2024/01/31 07:18:45;;;;;;;42.27;25.87;;;1.70;99.70;;;;;;6278499;22;20169;-61
2024/01/31 07:21:23;;;;;;;42.67;25.17;;;1.70;99.70;;;;;;6278746;22;20248;-61
2024/01/31 07:23:51;;;;;;;45.73;25.17;;;1.60;99.70;;;;;;6278355;22;20167;-61
2024/01/31 07:26:26;;;;;;;46.20;24.97;;;1.60;99.80;;;;;;6278790;22;20592;-61
2024/01/31 07:28:53;;;;;;;42.80;24.10;;;1.60;99.80;;;;;;6277846;22;20255;-61
2024/01/31 07:31:20;;;;;;;36.90;21.83;;;1.60;99.80;;;;;;6278627;22;20169;-61
2024/01/31 07:33:48;;;;;;;36.87;22.50;;;1.60;99.80;;;;;;6278209;22;20249;-61
2024/01/31 07:36:15;;;;;;;43.40;23.23;;;1.60;99.70;;;;;;6252047;22;20259;-61
2024/01/31 07:38:43;;;;;;;40.20;22.63;;;1.60;99.70;;;;;;6277429;22;20176;-61
2024/01/31 07:41:12;;;;;;;41.77;22.53;;;1.60;99.70;;;;;;6278601;22;20180;-61
2024/01/31 07:43:39;;;;;;;42.63;23.93;;;1.60;99.70;;;;;;6278438;22;20550;-61
2024/01/31 07:46:10;;;;;;;42.87;23.03;;;1.60;99.70;;;;;;6278796;22;20531;-61
2024/01/31 07:48:37;;;;;;;32.97;21.73;;;1.60;99.70;;;;;;6278316;22;20606;-61
2024/01/31 07:51:05;;;;;;;33.97;21.23;;;1.60;99.70;;;;;;6278030;22;20178;-60
2024/01/31 07:53:33;;;;;;;38.60;22.87;;;1.70;99.70;;;;;;6278034;22;20173;-60
2024/01/31 07:56:00;;;;;;;42.17;22.50;;;1.70;99.80;;;;;;6278341;22;20179;-61
2024/01/31 07:58:31;;;;;;;34.90;22.17;;;1.70;99.80;;;;;;6277735;22;20199;-62
2024/01/31 08:00:59;;;;;;;39.70;21.77;;;1.80;99.80;;;;;;6278315;22;20307;-61
2024/01/31 08:03:26;;;;;;;34.77;22.57;;;1.80;99.80;;;;;;6277826;22;20233;-61
2024/01/31 08:05:54;;;;;;;34.80;21.70;;;1.80;99.80;;;;;;6277823;22;20178;-61
2024/01/31 08:08:21;;;;;;;38.73;21.90;;;1.80;99.80;;;;;;6278081;22;20299;-61
2024/01/31 08:10:48;;;;;;;36.37;22.10;;;1.90;99.80;;;;;;6278130;22;20196;-61
2024/01/31 08:13:15;;;;;;;36.00;20.90;;;1.90;99.70;;;;;;6278584;22;20627;-61
2024/01/31 08:15:43;;;;;;;37.67;22.23;;;1.90;99.70;;;;;;6277623;22;20225;-61
2024/01/31 08:18:10;;;;;;;45.03;23.03;;;2.00;99.70;;;;;;6278366;22;20595;-61
2024/01/31 08:20:37;;;;;;;39.80;23.73;;;2.00;99.70;;;;;;6278041;22;20264;-61
2024/01/31 08:23:04;;;;;;;41.00;22.90;;;2.10;99.70;;;;;;6278186;22;20206;-62
2024/01/31 08:25:31;;;;;;;37.27;23.80;;;2.10;99.70;;;;;;6277183;22;20182;-61
2024/01/31 08:27:59;;;;;;;42.33;23.67;;;2.20;99.70;;;;;;6277991;22;20626;-60
2024/01/31 08:30:26;;;;;;;38.90;25.13;;;2.30;99.90;;;;;;6278269;22;20176;-61
2024/01/31 08:32:54;;;;;;;37.27;22.37;;;2.30;99.80;;;;;;6278106;22;20203;-61
2024/01/31 08:35:21;;;;;;;37.93;24.03;;;2.40;99.80;;;;;;6251006;22;20177;-60
2024/01/31 08:37:49;;;;;;;44.37;24.23;;;2.50;99.70;;;;;;6277711;22;20176;-60
2024/01/31 08:40:16;;;;;;;41.17;24.17;;;2.60;99.80;;;;;;6277468;22;20168;-60
2024/01/31 08:42:47;;;;;;;41.00;26.13;;;2.70;99.90;;;;;;6277956;22;20657;-59
2024/01/31 08:45:14;;;;;;;44.37;26.70;;;2.90;99.90;;;;;;6276603;22;20478;-60
2024/01/31 08:47:41;;;;;;;46.33;26.03;;;3.10;99.90;;;;;;6277802;22;20657;-61
2024/01/31 08:50:10;;;;;;;43.07;25.20;;;3.30;99.90;;;;;;6277671;22;20588;-60
2024/01/31 08:52:37;;;;;;;41.43;24.77;;;3.50;99.80;;;;;;6277310;22;20230;-61
2024/01/31 08:55:05;;;;;;;43.17;24.87;;;3.70;99.70;;;;;;6277756;22;20192;-60
2024/01/31 08:57:33;;;;;;;40.97;26.00;;;3.90;99.60;;;;;;6277818;22;20168;-61
2024/01/31 09:00:04;;;;;;;38.63;24.93;;;4.10;99.50;;;;;;6277795;22;20169;-61
2024/01/31 09:02:31;;;;;;;45.90;26.10;;;4.30;99.40;;;;;;6277088;22;20660;-61
2024/01/31 09:04:59;;;;;;;44.93;26.63;;;4.40;99.20;;;;;;6277635;22;20248;-61
2024/01/31 09:07:26;;;;;;;39.87;25.17;;;4.60;99.10;;;;;;6277431;22;20231;-61
2024/01/31 09:09:54;;;;;;;45.70;25.33;;;4.70;99.00;;;;;;6277227;22;20190;-61
2024/01/31 09:12:21;;;;;;;45.30;25.50;;;4.90;98.90;;;;;;6277437;22;20188;-61
2024/01/31 09:14:48;;;;;;;42.77;26.60;;;5.00;98.70;;;;;;6277298;22;20175;-60
2024/01/31 09:17:15;;;;;;;45.60;27.30;;;5.20;98.60;;;;;;6277236;22;20173;-60
2024/01/31 09:19:42;;;;;;;46.73;27.33;;;5.30;98.50;;;;;;6277552;22;20180;-60
2024/01/31 09:22:13;;;;;;;46.93;27.00;;;5.50;98.50;;;;;;6277029;22;20161;-60
2024/01/31 09:24:41;;;;;;;51.40;29.00;;;5.60;98.40;;;;;;6277624;22;20252;-61
2024/01/31 09:27:08;;;;;;;52.37;32.50;;;5.70;98.20;;;;;;6277198;22;20173;-60
2024/01/31 09:29:35;;;;;;;62.30;34.50;;;5.90;98.00;;;;;;6277280;22;20625;-60
2024/01/31 09:32:02;;;;;;;56.33;36.10;;;6.00;97.90;;;;;;6277154;22;20184;-60
2024/01/31 09:34:31;;;;;;;54.13;33.73;;;6.10;97.80;;;;;;6277348;22;20184;-61
2024/01/31 09:36:59;;;;;;;55.60;33.93;;;6.20;97.70;;;;;;6277291;22;20169;-61
2024/01/31 09:39:26;;;;;;;56.40;34.97;;;6.30;97.50;;;;;;6277381;22;20252;-62
2024/01/31 09:41:53;;;;;;;60.20;35.33;;;6.50;97.40;;;;;;6276860;22;20186;-61
2024/01/31 09:44:21;;;;;;;65.07;37.53;;;6.50;97.30;;;;;;6277101;22;20266;-62
2024/01/31 09:46:51;;;;;;;65.33;37.90;;;6.60;97.30;;;;;;6277177;22;20184;-60
2024/01/31 09:49:19;;;;;;;62.83;40.70;;;6.70;97.20;;;;;;6276821;22;20173;-61
2024/01/31 09:51:46;;;;;;;63.27;40.43;;;6.80;97.20;;;;;;6277096;22;20527;-63
2024/01/31 09:54:14;;;;;;;65.63;42.23;;;6.90;97.10;;;;;;6277077;22;20231;-61
2024/01/31 09:56:41;;;;;;;68.37;42.40;;;7.00;97.20;;;;;;6277080;22;20231;-60
2024/01/31 09:59:09;;;;;;;70.00;41.13;;;7.10;97.20;;;;;;6277090;22;20203;-62
2024/01/31 10:01:38;;;;;;;63.80;40.80;;;7.20;97.20;;;;;;6277068;22;20174;-61
2024/01/31 10:04:05;;;;;;;68.63;41.57;;;7.30;97.10;;;;;;6277795;22;20600;-60
2024/01/31 10:06:33;;;;;;;66.23;43.90;;;7.40;97.00;;;;;;6276685;22;20453;-61
2024/01/31 10:09:02;;;;;;;71.90;43.40;;;7.50;97.00;;;;;;6276795;22;20181;-61
2024/01/31 10:11:31;;;;;;;68.13;46.07;;;7.60;96.90;;;;;;6276881;22;20170;-60
2024/01/31 10:13:58;;;;;;;78.40;45.20;;;7.70;96.90;;;;;;6277035;22;20162;-62
2024/01/31 10:16:26;;;;;;;74.20;46.93;;;7.80;96.80;;;;;;6277305;22;20206;-62
2024/01/31 10:18:54;;;;;;;74.13;46.97;;;7.90;96.70;;;;;;6276240;22;20301;-61
2024/01/31 10:21:21;;;;;;;76.33;47.80;;;8.00;96.70;;;;;;6276562;22;20189;-62
2024/01/31 10:23:59;;;;;;;73.47;46.13;;;8.10;96.20;;;;;;6276896;22;20237;-61
2024/01/31 10:26:27;;;;;;;75.70;46.47;;;8.10;96.00;;;;;;6250513;22;20174;-62
2024/01/31 10:28:57;;;;;;;74.73;46.93;;;8.10;95.60;;;;;;6276552;22;20189;-62
2024/01/31 10:31:37;;;;;;;75.03;46.47;;;8.10;95.30;;;;;;6277096;22;20176;-62
2024/01/31 10:34:07;;;;;;;68.63;43.53;;;8.10;95.50;;;;;;6277352;22;20220;-61
2024/01/31 10:36:35;;;;;;;66.93;45.60;;;8.20;95.50;;;;;;6276726;22;20589;-62
2024/01/31 10:39:09;;;;;;;68.97;43.40;;;8.20;95.40;;;;;;6277047;22;20548;-61
2024/01/31 10:41:41;;;;;;;64.87;42.50;;;8.30;95.40;;;;;;6276791;22;20159;-61
2024/01/31 10:44:13;;;;;;;68.93;44.53;;;8.30;95.50;;;;;;6277116;22;20201;-60
2024/01/31 10:46:42;;;;;;;69.20;44.10;;;8.40;95.10;;;;;;6276699;22;20169;-61
2024/01/31 10:49:13;;;;;;;65.10;41.50;;;8.40;95.10;;;;;;6276837;22;20194;-61
2024/01/31 10:51:51;;;;;;;64.70;42.33;;;8.50;94.80;;;;;;6276803;22;20159;-60
2024/01/31 10:54:22;;;;;;;66.70;41.43;;;8.50;94.70;;;;;;6276365;22;20238;-61
2024/01/31 10:56:50;;;;;;;67.00;43.50;;;8.60;94.50;;;;;;6277065;22;20168;-60
2024/01/31 10:59:17;;;;;;;61.23;42.33;;;8.70;94.60;;;;;;6276496;22;20170;-61
2024/01/31 11:01:52;;;;;;;69.30;44.00;;;8.80;94.70;;;;;;6276793;22;20185;-62
2024/01/31 11:04:21;;;;;;;65.97;43.27;;;8.90;94.70;;;;;;6277097;22;20167;-61
2024/01/31 11:06:51;;;;;;;66.80;43.00;;;9.00;94.30;;;;;;6249903;22;20474;-62
2024/01/31 11:09:24;;;;;;;67.27;40.73;;;9.10;94.60;;;;;;6276636;22;20246;-60
2024/01/31 11:12:05;;;;;;;64.37;42.87;;;9.20;94.30;;;;;;6276957;22;20464;-60
2024/01/31 11:14:33;;;;;;;65.37;41.87;;;9.40;94.30;;;;;;6276098;22;20227;-61
2024/01/31 11:17:22;;;;;;;70.47;44.07;;;9.50;94.00;;;;;;6276894;22;20618;-61
2024/01/31 11:19:59;;;;;;;65.33;41.37;;;9.60;93.80;;;;;;6276533;22;20514;-61
2024/01/31 11:22:28;;;;;;;59.00;40.73;;;9.70;93.80;;;;;;6276636;22;20188;-61
2024/01/31 11:24:59;;;;;;;61.00;39.90;;;9.80;93.80;;;;;;6277406;22;20255;-62
2024/01/31 11:27:26;;;;;;;53.50;38.03;;;9.90;93.60;;;;;;6276499;22;20216;-62
2024/01/31 11:29:54;;;;;;;54.97;38.40;;;10.00;93.40;;;;;;6276808;22;20206;-61
2024/01/31 11:32:22;;;;;;;62.07;40.00;;;10.10;93.20;;;;;;6276941;22;20170;-61
2024/01/31 11:35:00;;;;;;;53.17;36.47;;;10.20;92.70;;;;;;6251319;22;20465;-61
2024/01/31 11:37:28;;;;;;;60.57;38.90;;;10.30;92.40;;;;;;6251448;22;20173;-61
2024/01/31 11:39:56;;;;;;;55.17;36.37;;;10.50;92.30;;;;;;6250892;22;20546;-62
2024/01/31 11:42:23;;;;;;;52.47;36.37;;;10.60;92.60;;;;;;6278298;22;20483;-60
2024/01/31 11:44:51;;;;;;;55.87;35.03;;;10.70;91.90;;;;;;6277882;22;20208;-62
2024/01/31 11:47:18;;;;;;;54.00;35.80;;;10.80;91.60;;;;;;6277846;22;20171;-60
2024/01/31 11:49:45;;;;;;;53.73;36.70;;;10.90;91.30;;;;;;6251313;22;20216;-61
2024/01/31 11:52:13;;;;;;;51.50;36.10;;;11.00;91.00;;;;;;6277815;22;20230;-61
2024/01/31 11:54:40;;;;;;;52.83;35.00;;;11.00;91.00;;;;;;6278076;22;20484;-62
2024/01/31 11:57:07;;;;;;;52.87;35.77;;;11.10;91.10;;;;;;6278468;22;20173;-62
2024/01/31 11:59:34;;;;;;;54.10;36.73;;;11.20;91.00;;;;;;6277959;22;20237;-62
2024/01/31 12:02:01;;;;;;;49.40;33.17;;;11.40;90.90;;;;;;6278276;22;20180;-62
2024/01/31 12:04:28;;;;;;;42.90;30.37;;;11.50;90.70;;;;;;6277845;22;20172;-60
2024/01/31 12:07:05;;;;;;;45.10;31.80;;;11.50;90.00;;;;;;6277291;22;20181;-60
2024/01/31 12:09:34;;;;;;;47.73;32.97;;;11.60;88.80;;;;;;6278081;22;20267;-60
2024/01/31 12:12:01;;;;;;;50.33;34.27;;;11.60;88.40;;;;;;6278448;22;20235;-60
2024/01/31 12:14:29;;;;;;;47.83;32.77;;;11.70;88.60;;;;;;6277312;22;20180;-61
2024/01/31 12:16:56;;;;;;;45.37;30.17;;;11.80;88.50;;;;;;6278312;22;20168;-61
2024/01/31 12:19:24;;;;;;;43.63;29.77;;;11.80;86.90;;;;;;6277827;22;20179;-62
2024/01/31 12:21:52;;;;;;;35.80;25.47;;;11.90;86.40;;;;;;6278328;22;20619;-62
2024/01/31 12:24:19;;;;;;;41.63;27.27;;;11.90;86.50;;;;;;6277916;22;20176;-61
2024/01/31 12:26:46;;;;;;;40.67;26.17;;;11.90;84.20;;;;;;6278119;22;20214;-63
2024/01/31 12:29:13;;;;;;;39.83;27.30;;;11.90;82.60;;;;;;6251329;22;20254;-61
2024/01/31 12:31:40;;;;;;;40.10;28.53;;;11.90;82.30;;;;;;6278108;22;20169;-62
2024/01/31 12:34:09;;;;;;;38.53;27.50;;;11.90;83.30;;;;;;6278096;22;20178;-61
2024/01/31 12:36:36;;;;;;;39.43;25.07;;;12.00;83.90;;;;;;6277524;22;20648;-62
2024/01/31 12:39:03;;;;;;;32.83;24.43;;;12.00;82.30;;;;;;6278025;22;20188;-61